createdAt,value
2018-11-10T00:01:33.027Z,13.67
2018-11-10T00:07:12.975Z,13.07
2018-11-10T00:09:41.282Z,14.17
2018-11-10T00:12:10.150Z,12.57
2018-11-10T00:14:38.488Z,16.13
2018-11-10T00:17:07.075Z,12.70
2018-11-10T00:19:35.623Z,12.83
2018-11-10T00:22:03.932Z,13.20
2018-11-10T00:24:32.260Z,12.43
2018-11-10T00:27:01.104Z,12.20
2018-11-10T00:29:29.464Z,15.53
2018-11-10T00:31:57.783Z,12.90
2018-11-10T00:34:26.163Z,10.93
2018-11-10T00:36:54.629Z,11.73
2018-11-10T00:39:23.303Z,11.53
2018-11-10T00:41:51.605Z,11.43
2018-11-10T00:44:20.240Z,15.53
2018-11-10T00:46:48.564Z,10.00
2018-11-10T00:49:16.926Z,13.00
2018-11-10T00:51:45.288Z,10.87
2018-11-10T00:54:13.943Z,11.13
2018-11-10T00:56:42.274Z,9.90
2018-11-10T00:59:11.248Z,11.73
2018-11-10T01:01:39.911Z,11.90
2018-11-10T01:04:08.239Z,10.87
2018-11-10T01:06:36.556Z,13.20
2018-11-10T01:09:06.790Z,10.67
2018-11-10T01:11:35.376Z,11.77
2018-11-10T01:14:03.692Z,10.53
2018-11-10T01:16:31.968Z,9.33
2018-11-10T01:19:00.310Z,9.60
2018-11-10T01:21:28.706Z,11.73
2018-11-10T01:23:57.033Z,10.30
2018-11-10T01:26:25.310Z,9.70
2018-11-10T01:28:53.811Z,10.57
2018-11-10T01:31:22.174Z,11.23
2018-11-10T01:33:50.455Z,12.97
2018-11-10T01:36:18.819Z,11.23
2018-11-10T01:38:47.121Z,12.77
2018-11-10T01:41:15.425Z,10.53
2018-11-10T01:43:43.672Z,10.70
2018-11-10T01:46:11.990Z,11.17
2018-11-10T01:48:40.359Z,13.10
2018-11-10T01:51:12.228Z,10.97
2018-11-10T01:53:40.530Z,10.57
2018-11-10T01:56:08.853Z,11.87
2018-11-10T01:58:37.539Z,12.07
2018-11-10T02:01:06.101Z,10.27
2018-11-10T02:03:34.469Z,10.87
2018-11-10T02:06:02.810Z,13.10
2018-11-10T02:08:31.129Z,11.57
2018-11-10T02:10:59.473Z,10.90
2018-11-10T02:13:29.046Z,11.30
2018-11-10T02:15:57.392Z,12.77
2018-11-10T02:18:25.798Z,10.07
2018-11-10T02:20:54.121Z,10.30
2018-11-10T02:23:22.507Z,9.47
2018-11-10T02:25:50.916Z,9.90
2018-11-10T02:28:19.239Z,9.50
2018-11-10T02:30:47.808Z,8.43
2018-11-10T02:33:16.183Z,9.23
2018-11-10T02:35:44.631Z,8.97
2018-11-10T02:38:13.062Z,11.37
2018-11-10T02:40:41.379Z,9.63
2018-11-10T02:43:09.667Z,8.13
2018-11-10T02:45:38.001Z,9.43
2018-11-10T02:48:06.839Z,10.80
2018-11-10T02:50:35.242Z,6.60
2018-11-10T02:53:03.792Z,7.53
2018-11-10T03:01:18.274Z,7.40
2018-11-10T03:03:46.654Z,11.97
2018-11-10T03:06:14.986Z,8.27
2018-11-10T03:08:43.313Z,6.77
2018-11-10T03:11:11.712Z,7.03
2018-11-10T03:13:40.071Z,7.90
2018-11-10T03:16:08.516Z,8.27
2018-11-10T03:18:37.050Z,7.47
2018-11-10T03:21:05.965Z,7.83
2018-11-10T03:23:34.360Z,7.73
2018-11-10T03:26:03.139Z,8.73
2018-11-10T03:28:31.470Z,6.93
2018-11-10T03:30:59.800Z,6.87
2018-11-10T03:33:28.179Z,8.00
2018-11-10T03:35:56.537Z,8.17
2018-11-10T03:38:24.864Z,7.53
2018-11-10T03:40:54.517Z,8.47
2018-11-10T03:43:22.821Z,7.30
2018-11-10T03:45:51.162Z,8.13
2018-11-10T03:48:19.450Z,7.10
2018-11-10T03:50:47.759Z,7.07
2018-11-10T03:53:16.101Z,7.60
2018-11-10T03:55:44.393Z,6.87
2018-11-10T03:58:12.689Z,9.03
2018-11-10T04:00:41.028Z,7.53
2018-11-10T04:08:57.186Z,8.37
2018-11-10T04:11:25.528Z,7.93
2018-11-10T04:13:53.856Z,8.83
2018-11-10T04:16:22.194Z,7.50
2018-11-10T04:18:50.625Z,7.17
2018-11-10T04:21:18.989Z,7.67
2018-11-10T04:23:47.383Z,6.43
2018-11-10T04:26:15.703Z,5.30
2018-11-10T04:28:44.061Z,7.10
2018-11-10T04:31:12.456Z,6.17
2018-11-10T04:33:40.786Z,5.80
2018-11-10T04:36:09.092Z,6.00
2018-11-10T04:38:37.474Z,5.83
2018-11-10T04:41:06.181Z,4.03
2018-11-10T04:43:34.536Z,4.27
2018-11-10T04:46:03.034Z,3.93
2018-11-10T04:48:31.785Z,3.23
2018-11-10T04:51:00.117Z,5.77
2018-11-10T04:53:28.464Z,3.43
2018-11-10T04:55:57.182Z,4.10
2018-11-10T04:58:25.554Z,5.87
2018-11-10T05:00:53.937Z,3.20
2018-11-10T05:03:22.272Z,2.47
2018-11-10T05:05:50.615Z,3.03
2018-11-10T05:08:19.066Z,3.73
2018-11-10T05:10:47.435Z,3.50
2018-11-10T05:13:15.791Z,2.67
2018-11-10T05:15:44.161Z,3.73
2018-11-10T05:18:12.515Z,3.53
2018-11-10T05:20:40.887Z,3.13
2018-11-10T05:23:09.256Z,4.27
2018-11-10T05:25:37.785Z,3.80
2018-11-10T05:28:06.126Z,5.00
2018-11-10T05:30:34.556Z,5.73
2018-11-10T05:33:03.737Z,4.00
2018-11-10T05:35:32.078Z,3.70
2018-11-10T05:38:00.540Z,4.20
2018-11-10T05:40:29.011Z,5.47
2018-11-10T05:42:57.833Z,4.43
2018-11-10T05:45:26.185Z,3.83
2018-11-10T05:47:54.567Z,4.20
2018-11-10T05:50:22.988Z,3.97
2018-11-10T05:52:51.386Z,4.73
2018-11-10T05:55:19.735Z,5.90
2018-11-10T05:57:48.092Z,6.37
2018-11-10T06:00:16.436Z,5.60
2018-11-10T06:02:44.799Z,4.63
2018-11-10T06:05:18.723Z,5.30
2018-11-10T06:07:47.057Z,4.23
2018-11-10T06:10:15.636Z,4.13
2018-11-10T06:12:44.253Z,5.17
2018-11-10T06:15:13.027Z,3.80
2018-11-10T06:17:41.413Z,4.50
2018-11-10T06:20:11.951Z,5.73
2018-11-10T06:22:40.409Z,4.70
2018-11-10T06:25:09.803Z,5.97
2018-11-10T06:27:43.730Z,6.00
2018-11-10T06:30:12.593Z,4.37
2018-11-10T06:32:41.154Z,4.63
2018-11-10T06:35:10.194Z,6.03
2018-11-10T06:37:38.919Z,4.50
2018-11-10T06:40:09.064Z,6.47
2018-11-10T06:42:37.420Z,5.10
2018-11-10T06:45:06.286Z,4.40
2018-11-10T06:47:34.703Z,5.43
2018-11-10T06:50:11.222Z,4.83
2018-11-10T06:52:39.795Z,5.27
2018-11-10T06:55:09.338Z,4.93
2018-11-10T06:57:37.781Z,6.30
2018-11-10T07:00:08.388Z,5.67
2018-11-10T07:02:38.706Z,4.80
2018-11-10T07:05:07.663Z,5.20
2018-11-10T07:07:36.187Z,5.47
2018-11-10T07:10:04.867Z,5.13
2018-11-10T07:12:33.837Z,6.70
2018-11-10T07:15:02.487Z,5.73
2018-11-10T07:17:31.204Z,6.47
2018-11-10T07:19:59.732Z,6.27
2018-11-10T07:22:28.116Z,7.13
2018-11-10T07:24:56.499Z,7.63
2018-11-10T07:27:25.115Z,7.67
2018-11-10T07:29:53.601Z,10.43
2018-11-10T07:32:22.004Z,7.50
2018-11-10T07:34:50.454Z,8.40
2018-11-10T07:37:18.804Z,8.63
2018-11-10T07:39:48.563Z,8.70
2018-11-10T07:42:17.040Z,8.47
2018-11-10T07:44:45.363Z,8.80
2018-11-10T07:47:13.779Z,9.43
2018-11-10T07:49:47.881Z,9.50
2018-11-10T07:52:16.182Z,9.50
2018-11-10T07:54:44.549Z,10.67
2018-11-10T07:57:12.848Z,9.90
2018-11-10T07:59:41.189Z,10.10
2018-11-10T08:02:09.491Z,9.80
2018-11-10T08:04:37.796Z,9.70
2018-11-10T08:07:06.207Z,10.07
2018-11-10T08:09:34.589Z,9.83
2018-11-10T08:12:03.093Z,10.00
2018-11-10T08:14:31.575Z,10.03
2018-11-10T08:16:59.900Z,11.73
2018-11-10T08:19:28.261Z,10.93
2018-11-10T08:21:56.609Z,10.77
2018-11-10T08:24:24.960Z,11.50
2018-11-10T08:26:53.305Z,11.13
2018-11-10T08:29:21.682Z,10.93
2018-11-10T08:31:50.017Z,11.73
2018-11-10T08:34:18.492Z,11.33
2018-11-10T08:36:46.931Z,10.63
2018-11-10T08:39:15.441Z,10.70
2018-11-10T08:41:44.141Z,9.83
2018-11-10T08:44:12.486Z,9.60
2018-11-10T08:46:41.054Z,9.20
2018-11-10T08:49:09.492Z,9.63
2018-11-10T08:57:30.367Z,8.60
2018-11-10T08:59:58.969Z,9.10
2018-11-10T09:02:27.383Z,7.83
2018-11-10T09:04:55.837Z,8.53
2018-11-10T09:07:24.272Z,6.73
2018-11-10T09:09:52.880Z,7.13
2018-11-10T09:12:22.172Z,6.47
2018-11-10T09:14:50.985Z,6.03
2018-11-10T09:17:19.719Z,6.73
2018-11-10T09:19:49.166Z,7.27
2018-11-10T09:22:18.170Z,6.20
2018-11-10T09:24:47.010Z,6.77
2018-11-10T09:27:15.398Z,6.53
2018-11-10T09:29:44.247Z,6.53
2018-11-10T09:32:12.748Z,7.00
2018-11-10T09:34:41.094Z,6.43
2018-11-10T09:37:09.437Z,6.93
2018-11-10T09:39:37.803Z,5.73
2018-11-10T09:42:06.881Z,6.07
2018-11-10T09:44:35.455Z,6.57
2018-11-10T09:47:03.780Z,5.50
2018-11-10T09:49:32.089Z,6.67
2018-11-10T09:52:09.565Z,5.53
2018-11-10T09:54:38.218Z,5.20
2018-11-10T09:57:06.599Z,7.40
2018-11-10T09:59:35.449Z,6.58
2018-11-10T10:02:04.404Z,4.93
2018-11-10T10:04:32.722Z,5.23
2018-11-10T10:07:01.064Z,5.63
2018-11-10T10:09:29.363Z,6.00
2018-11-10T10:11:58.275Z,5.17
2018-11-10T10:14:26.586Z,5.42
2018-11-10T10:16:54.942Z,5.83
2018-11-10T10:19:23.304Z,4.35
2018-11-10T10:21:53.493Z,5.50
2018-11-10T10:24:22.487Z,4.47
2018-11-10T10:26:51.359Z,4.78
2018-11-10T10:29:21.310Z,5.75
2018-11-10T10:31:50.342Z,4.83
2018-11-10T10:34:22.441Z,4.35
2018-11-10T10:39:27.726Z,4.55
2018-11-10T10:41:56.971Z,3.98
2018-11-10T10:44:26.015Z,4.08
2018-11-10T10:46:58.019Z,3.35
2018-11-10T10:49:26.920Z,3.60
2018-11-10T10:51:55.768Z,3.70
2018-11-10T10:54:24.673Z,3.75
2018-11-10T10:56:53.624Z,3.42
2018-11-10T10:59:22.681Z,5.10
2018-11-10T11:04:04.426Z,6.30
2018-11-10T11:06:33.382Z,3.75
2018-11-10T11:09:02.347Z,3.65
2018-11-10T11:11:39.894Z,6.00
2018-11-10T11:14:08.848Z,3.42
2018-11-10T11:16:37.759Z,5.80
2018-11-10T11:19:06.784Z,5.72
2018-11-10T11:21:35.707Z,5.62
2018-11-10T11:24:05.151Z,6.70
2018-11-10T11:26:34.382Z,5.70
2018-11-10T11:29:03.362Z,4.97
2018-11-10T11:31:32.434Z,6.22
2018-11-10T11:34:01.676Z,4.62
2018-11-10T11:36:30.576Z,4.97
2018-11-10T11:38:59.475Z,5.12
2018-11-10T11:41:28.636Z,4.20
2018-11-10T11:43:57.581Z,4.67
2018-11-10T11:46:26.519Z,5.30
2018-11-10T11:51:30.103Z,3.80
2018-11-10T11:53:59.034Z,4.95
2018-11-10T11:56:28.386Z,4.50
2018-11-10T12:04:06.295Z,5.03
2018-11-10T12:06:35.249Z,5.15
2018-11-10T12:09:05.721Z,4.85
2018-11-10T12:11:34.735Z,5.60
2018-11-10T12:14:03.958Z,4.85
2018-11-10T12:16:41.415Z,6.50
2018-11-10T12:19:10.660Z,4.87
2018-11-10T12:21:39.670Z,5.17
2018-11-10T12:24:09.073Z,3.92
2018-11-10T12:26:38.045Z,6.55
2018-11-10T12:29:07.632Z,4.65
2018-11-10T12:31:48.482Z,4.75
2018-11-10T12:34:18.032Z,4.90
2018-11-10T12:36:47.120Z,5.20
2018-11-10T12:39:16.149Z,5.45
2018-11-10T12:41:45.416Z,5.15
2018-11-10T12:44:14.425Z,5.17
2018-11-10T12:46:43.408Z,5.17
2018-11-10T12:49:12.716Z,4.92
2018-11-10T12:51:42.085Z,4.65
2018-11-10T12:54:11.120Z,4.20
2018-11-10T12:56:41.011Z,4.05
2018-11-10T12:59:10.173Z,5.95
2018-11-10T13:01:39.214Z,5.35
2018-11-10T13:04:08.687Z,6.17
2018-11-10T13:06:37.689Z,5.05
2018-11-10T13:09:08.306Z,5.10
2018-11-10T13:11:37.920Z,4.60
2018-11-10T13:14:09.154Z,5.78
2018-11-10T13:16:38.316Z,6.50
2018-11-10T13:19:08.571Z,6.45
2018-11-10T13:21:38.100Z,3.92
2018-11-10T13:24:07.195Z,3.80
2018-11-10T13:26:36.402Z,6.33
2018-11-10T13:29:05.905Z,5.15
2018-11-10T13:31:35.050Z,5.47
2018-11-10T13:34:05.076Z,5.50
2018-11-10T13:36:34.180Z,5.00
2018-11-10T13:39:03.439Z,5.47
2018-11-10T13:41:33.267Z,7.22
2018-11-10T13:44:02.579Z,7.42
2018-11-10T13:46:31.944Z,5.75
2018-11-10T13:49:00.958Z,6.03
2018-11-10T13:51:30.237Z,3.85
2018-11-10T13:53:59.327Z,4.80
2018-11-10T13:56:34.873Z,6.08
2018-11-10T13:59:04.077Z,3.80
2018-11-10T14:01:33.155Z,3.70
2018-11-10T14:04:02.197Z,4.85
2018-11-10T14:06:30.604Z,4.77
2018-11-10T14:08:59.492Z,6.47
2018-11-10T14:11:28.368Z,6.83
2018-11-10T14:13:57.730Z,6.73
2018-11-10T14:16:26.123Z,6.20
2018-11-10T14:18:54.968Z,6.27
2018-11-10T14:21:23.692Z,4.80
2018-11-10T14:23:52.109Z,7.67
2018-11-10T14:26:20.526Z,6.77
2018-11-10T14:28:49.009Z,6.27
2018-11-10T14:31:17.411Z,5.47
2018-11-10T14:33:45.834Z,6.07
2018-11-10T14:36:14.500Z,7.07
2018-11-10T14:38:42.825Z,7.40
2018-11-10T14:41:11.208Z,5.90
2018-11-10T14:43:39.582Z,6.93
2018-11-10T14:46:08.100Z,6.37
2018-11-10T14:48:37.277Z,6.12
2018-11-10T14:51:05.877Z,5.50
2018-11-10T14:53:34.330Z,5.67
2018-11-10T14:56:06.499Z,6.33
2018-11-10T14:58:35.027Z,6.40
2018-11-10T15:01:03.468Z,5.87
2018-11-10T15:03:31.943Z,5.70
2018-11-10T15:06:00.405Z,5.03
2018-11-10T15:08:28.801Z,5.77
2018-11-10T15:10:57.315Z,5.03
2018-11-10T15:13:25.810Z,5.57
2018-11-10T15:15:54.215Z,5.33
2018-11-10T15:18:22.827Z,5.00
2018-11-10T15:20:51.484Z,5.63
2018-11-10T15:23:20.150Z,7.63
2018-11-10T15:25:48.791Z,5.63
2018-11-10T15:28:17.148Z,5.17
2018-11-10T15:30:45.768Z,6.93
2018-11-10T15:33:14.249Z,6.53
2018-11-10T15:35:42.633Z,6.57
2018-11-10T15:38:11.279Z,7.90
2018-11-10T15:40:39.897Z,6.37
2018-11-10T15:43:08.388Z,6.70
2018-11-10T15:45:36.742Z,6.47
2018-11-10T15:48:05.121Z,6.93
2018-11-10T15:50:33.680Z,8.07
2018-11-10T15:53:02.122Z,7.60
2018-11-10T15:55:31.431Z,8.33
2018-11-10T15:57:59.762Z,7.43
2018-11-10T16:00:28.285Z,9.27
2018-11-10T16:02:56.823Z,8.13
2018-11-10T16:05:25.982Z,7.90
2018-11-10T16:07:54.572Z,9.17
2018-11-10T16:10:23.197Z,8.53
2018-11-10T16:12:51.845Z,8.77
2018-11-10T16:15:20.516Z,8.97
2018-11-10T16:20:48.582Z,7.97
2018-11-10T16:23:18.036Z,8.97
2018-11-10T16:25:46.439Z,8.10
2018-11-10T16:28:15.362Z,8.70
2018-11-10T16:30:44.037Z,7.83
2018-11-10T16:33:12.556Z,8.23
2018-11-10T16:35:41.121Z,8.67
2018-11-10T16:38:09.774Z,8.63
2018-11-10T16:40:38.221Z,7.67
2018-11-10T16:46:02.402Z,6.87
2018-11-10T16:48:30.834Z,8.10
2018-11-10T16:50:59.409Z,9.30
2018-11-10T16:53:28.064Z,11.73
2018-11-10T16:55:56.603Z,11.37
2018-11-10T16:58:25.150Z,11.60
2018-11-10T17:00:53.749Z,12.07
2018-11-10T17:03:22.241Z,10.30
2018-11-10T17:05:50.720Z,10.30
2018-11-10T17:08:20.129Z,9.17
2018-11-10T17:10:48.707Z,7.07
2018-11-10T17:13:17.251Z,7.83
2018-11-10T17:15:46.546Z,6.90
2018-11-10T17:18:14.942Z,7.60
2018-11-10T17:20:43.457Z,9.60
2018-11-10T17:23:12.413Z,7.77
2018-11-10T17:25:40.743Z,7.47
2018-11-10T17:28:09.151Z,8.20
2018-11-10T17:30:37.523Z,8.20
2018-11-10T17:33:07.151Z,7.70
2018-11-10T17:35:35.749Z,9.43
2018-11-10T17:38:04.429Z,8.10
2018-11-10T17:40:33.278Z,8.37
2018-11-10T17:43:01.738Z,8.70
2018-11-10T17:45:30.181Z,10.00
2018-11-10T17:47:58.577Z,9.63
2018-11-10T17:50:26.964Z,10.33
2018-11-10T17:52:55.322Z,12.53
2018-11-10T17:55:23.690Z,12.30
2018-11-10T17:57:52.144Z,12.73
2018-11-10T18:00:20.684Z,12.70
2018-11-10T18:02:49.057Z,14.63
2018-11-10T18:05:18.026Z,15.53
2018-11-10T18:07:46.770Z,13.87
2018-11-10T18:10:16.996Z,14.47
2018-11-10T18:12:46.025Z,14.03
2018-11-10T18:15:14.920Z,12.23
2018-11-10T18:17:43.601Z,12.57
2018-11-10T18:20:13.548Z,15.00
2018-11-10T18:22:41.951Z,16.60
2018-11-10T18:25:10.413Z,14.57
2018-11-10T18:27:38.904Z,15.73
2018-11-10T18:30:08.955Z,17.17
2018-11-10T18:32:37.483Z,17.10
2018-11-10T18:35:07.114Z,18.10
2018-11-10T18:37:35.729Z,18.80
2018-11-10T18:40:04.934Z,19.23
2018-11-10T18:42:33.430Z,18.63
2018-11-10T18:45:01.800Z,17.00
2018-11-10T18:47:30.266Z,17.47
2018-11-10T18:49:59.746Z,17.03
2018-11-10T18:52:28.373Z,18.33
2018-11-10T18:54:56.967Z,16.50
2018-11-10T18:57:25.640Z,16.40
2018-11-10T18:59:54.224Z,17.80
2018-11-10T19:02:22.665Z,16.97
2018-11-10T19:04:51.230Z,17.17
2018-11-10T19:07:19.722Z,17.57
2018-11-10T19:09:48.193Z,18.23
2018-11-10T19:12:16.647Z,20.37
2018-11-10T19:14:45.101Z,19.77
2018-11-10T19:17:13.682Z,19.13
2018-11-10T19:19:42.070Z,20.53
2018-11-10T19:22:10.677Z,18.97
2018-11-10T19:24:39.185Z,20.50
2018-11-10T19:27:07.569Z,20.23
2018-11-10T19:29:36.043Z,18.93
2018-11-10T19:32:04.526Z,20.77
2018-11-10T19:34:33.094Z,18.10
2018-11-10T19:37:01.865Z,21.20
2018-11-10T19:39:30.294Z,19.63
2018-11-10T19:41:58.790Z,18.40
2018-11-10T19:44:27.314Z,21.37
2018-11-10T19:46:56.813Z,19.63
2018-11-10T19:49:25.394Z,19.60
2018-11-10T19:51:53.888Z,19.47
2018-11-10T19:54:22.410Z,30.20
2018-11-10T19:56:50.835Z,20.33
2018-11-10T19:59:19.227Z,22.00
2018-11-10T20:01:47.625Z,22.77
2018-11-10T20:04:16.089Z,28.20
2018-11-10T20:06:44.448Z,30.60
2018-11-10T20:09:13.061Z,37.30
2018-11-10T20:11:42.163Z,28.00
2018-11-10T20:14:10.625Z,28.70
2018-11-10T20:16:39.066Z,24.57
2018-11-10T20:19:07.464Z,21.97
2018-11-10T20:21:35.945Z,22.80
2018-11-10T20:24:07.087Z,20.90
2018-11-10T20:26:36.330Z,22.40
2018-11-10T20:29:04.740Z,21.10
2018-11-10T20:31:33.198Z,22.57
2018-11-10T20:34:01.996Z,23.93
2018-11-10T20:36:30.405Z,21.73
2018-11-10T20:38:59.032Z,19.93
2018-11-10T20:41:27.650Z,20.23
2018-11-10T20:43:56.115Z,20.17
2018-11-10T20:46:24.569Z,22.60
2018-11-10T20:48:53.036Z,21.37
2018-11-10T20:51:21.451Z,20.17
2018-11-10T20:53:49.853Z,23.17
2018-11-10T20:56:18.266Z,22.20
2018-11-10T20:58:46.678Z,24.17
2018-11-10T21:01:15.130Z,21.27
2018-11-10T21:03:43.516Z,21.87
2018-11-10T21:06:12.002Z,20.40
2018-11-10T21:08:40.445Z,22.83
2018-11-10T21:11:08.870Z,21.90
2018-11-10T21:13:37.253Z,21.60
2018-11-10T21:16:05.842Z,20.57
2018-11-10T21:18:34.402Z,19.47
2018-11-10T21:21:02.971Z,19.33
2018-11-10T21:23:31.390Z,19.53
2018-11-10T21:25:59.924Z,18.87
2018-11-10T21:28:28.630Z,22.30
2018-11-10T21:30:57.145Z,21.13
2018-11-10T21:33:25.760Z,18.10
2018-11-10T21:35:54.459Z,18.50
2018-11-10T21:38:23.171Z,21.83
2018-11-10T21:40:51.599Z,20.37
2018-11-10T21:43:20.034Z,19.57
2018-11-10T21:45:48.498Z,21.13
2018-11-10T21:48:16.945Z,20.50
2018-11-10T21:50:45.513Z,23.43
2018-11-10T21:53:13.976Z,20.43
2018-11-10T21:55:42.564Z,20.00
2018-11-10T21:58:11.016Z,18.70
2018-11-10T22:00:39.754Z,21.37
2018-11-10T22:03:08.286Z,20.17
2018-11-10T22:05:36.872Z,23.67
2018-11-10T22:08:05.586Z,20.90
2018-11-10T22:10:34.241Z,24.70
2018-11-10T22:13:02.823Z,20.23
2018-11-10T22:15:31.228Z,20.60
2018-11-10T22:17:59.688Z,21.00
2018-11-10T22:20:28.181Z,19.90
2018-11-10T22:22:56.584Z,20.67
2018-11-10T22:25:25.154Z,16.20
2018-11-10T22:27:54.367Z,19.83
2018-11-10T22:30:23.266Z,22.97
2018-11-10T22:35:44.706Z,23.57
2018-11-10T22:38:13.186Z,20.00
2018-11-10T22:40:41.696Z,21.17
2018-11-10T22:43:10.276Z,21.20
2018-11-10T22:45:38.705Z,19.20
2018-11-10T22:48:07.203Z,20.33
2018-11-10T22:50:35.727Z,23.40
2018-11-10T22:53:04.733Z,23.70
2018-11-10T22:55:33.207Z,24.23
2018-11-10T22:58:01.629Z,22.57
2018-11-10T23:00:30.167Z,20.63
2018-11-10T23:03:00.087Z,18.70
2018-11-10T23:05:28.613Z,19.27
2018-11-10T23:07:57.114Z,15.83
2018-11-10T23:10:25.660Z,22.90
2018-11-10T23:12:54.665Z,22.40
2018-11-10T23:15:23.144Z,21.73
2018-11-10T23:17:52.034Z,19.27
2018-11-10T23:20:20.860Z,19.90
2018-11-10T23:22:49.462Z,20.90
2018-11-10T23:25:18.596Z,19.17
2018-11-10T23:27:46.974Z,19.60
2018-11-10T23:30:18.818Z,18.50
2018-11-10T23:32:47.307Z,21.87
2018-11-10T23:35:15.757Z,22.13
2018-11-10T23:37:44.275Z,20.03
2018-11-10T23:40:13.991Z,20.00
2018-11-10T23:42:43.503Z,19.03
2018-11-10T23:45:12.827Z,22.07
2018-11-10T23:47:41.447Z,20.73
2018-11-10T23:50:12.085Z,20.27
2018-11-10T23:52:40.705Z,20.50
2018-11-10T23:55:10.408Z,22.73
2018-11-10T23:57:39.362Z,21.10
